SGAS/ASU METAR and TAF weather

Enter ICAO airport designator
Station Type Date Time Source
SGAS METAR 2017/05/23 03:00 UTC NOAA

SGAS 230300Z VRB04KT 9999 SCT033 OVC080 21/18 Q1014


Station Type Date Time Source
SGAS Decoded METAR 2017/05/23 03:00 UTC NOAA

Asuncion / Aeropuerto, Paraguay (SGAS) 25-16S 057-38W 101M
May 22, 2017 - 11:00 PM EDT / 2017.05.23 0300 UTC
Wind: Variable at 5 MPH (4 KT):0
Visibility: greater than 7 mile(s):0
Sky conditions: overcast
Temperature: 69 F (21 C)
Dew Point: 64 F (18 C)
Relative Humidity: 82%
Pressure (altimeter): 29.94 in. Hg (1014 hPa)
ob: SGAS 230300Z VRB04KT 9999 SCT033 OVC080 21/18 Q1014
cycle: 3

Station Type Date Time Source
SGAS TAF 2017/05/22 18:33 UTC NOAA

TAF TAF SGAS 221630Z 2218/2318 07005KT 9999 SCT033 TX24/2219Z TN20/2310Z PROB30
TEMPO 2221/2223 8000 RA BKN020
BECMG 2304/2308 05006KT 9999 TS BKN027 FEW040CB
BECMG 2310/2313 22012KT 5000 TSRA BKN020 FEW040CB


Example: see airport list